sensor_id;sensor_type;location;lat;lon;timestamp;P1;durP1;ratioP1;P2;durP2;ratioP2
27863;SDS011;15980;51.092;13.916;2022-07-29T00:01:58;4.28;;;1.67;;
27863;SDS011;15980;51.092;13.916;2022-07-29T00:07:00;4.28;;;2.03;;
27863;SDS011;15980;51.092;13.916;2022-07-29T00:12:05;4.07;;;1.30;;
27863;SDS011;15980;51.092;13.916;2022-07-29T00:17:08;3.75;;;1.48;;
27863;SDS011;15980;51.092;13.916;2022-07-29T00:22:11;2.17;;;1.50;;
27863;SDS011;15980;51.092;13.916;2022-07-29T00:27:15;2.35;;;1.20;;
27863;SDS011;15980;51.092;13.916;2022-07-29T00:32:19;4.57;;;1.45;;
27863;SDS011;15980;51.092;13.916;2022-07-29T00:37:22;4.50;;;1.27;;
27863;SDS011;15980;51.092;13.916;2022-07-29T00:42:26;3.10;;;1.50;;
27863;SDS011;15980;51.092;13.916;2022-07-29T00:47:29;8.40;;;2.35;;
27863;SDS011;15980;51.092;13.916;2022-07-29T00:52:32;3.58;;;1.25;;
27863;SDS011;15980;51.092;13.916;2022-07-29T00:57:37;3.85;;;1.27;;
27863;SDS011;15980;51.092;13.916;2022-07-29T01:02:40;2.03;;;1.05;;
27863;SDS011;15980;51.092;13.916;2022-07-29T01:07:43;3.10;;;2.10;;
27863;SDS011;15980;51.092;13.916;2022-07-29T01:12:50;4.43;;;1.40;;
27863;SDS011;15980;51.092;13.916;2022-07-29T01:17:59;3.30;;;1.48;;
27863;SDS011;15980;51.092;13.916;2022-07-29T01:23:08;6.63;;;1.50;;
27863;SDS011;15980;51.092;13.916;2022-07-29T01:34:02;2.08;;;1.05;;
27863;SDS011;15980;51.092;13.916;2022-07-29T01:39:08;5.03;;;1.40;;
27863;SDS011;15980;51.092;13.916;2022-07-29T01:44:17;4.95;;;1.30;;
27863;SDS011;15980;51.092;13.916;2022-07-29T01:49:24;5.40;;;1.50;;
27863;SDS011;15980;51.092;13.916;2022-07-29T01:54:32;2.92;;;1.60;;
27863;SDS011;15980;51.092;13.916;2022-07-29T01:59:41;5.65;;;1.55;;
27863;SDS011;15980;51.092;13.916;2022-07-29T02:04:45;5.05;;;1.73;;
27863;SDS011;15980;51.092;13.916;2022-07-29T02:09:51;4.93;;;1.58;;
27863;SDS011;15980;51.092;13.916;2022-07-29T02:14:56;3.63;;;1.40;;
27863;SDS011;15980;51.092;13.916;2022-07-29T02:20:03;2.28;;;1.58;;
27863;SDS011;15980;51.092;13.916;2022-07-29T02:25:07;4.85;;;1.77;;
27863;SDS011;15980;51.092;13.916;2022-07-29T02:30:13;3.30;;;1.50;;
27863;SDS011;15980;51.092;13.916;2022-07-29T02:35:16;3.67;;;1.35;;
27863;SDS011;15980;51.092;13.916;2022-07-29T02:40:20;5.43;;;1.63;;
27863;SDS011;15980;51.092;13.916;2022-07-29T02:45:25;5.90;;;1.80;;
27863;SDS011;15980;51.092;13.916;2022-07-29T02:50:29;2.40;;;1.33;;
27863;SDS011;15980;51.092;13.916;2022-07-29T02:55:37;2.75;;;1.35;;
27863;SDS011;15980;51.092;13.916;2022-07-29T03:00:48;8.65;;;1.70;;
27863;SDS011;15980;51.092;13.916;2022-07-29T03:05:53;2.55;;;1.27;;
27863;SDS011;15980;51.092;13.916;2022-07-29T03:10:59;4.05;;;1.50;;
27863;SDS011;15980;51.092;13.916;2022-07-29T03:16:05;2.63;;;1.50;;
27863;SDS011;15980;51.092;13.916;2022-07-29T03:21:11;4.15;;;1.45;;
27863;SDS011;15980;51.092;13.916;2022-07-29T03:26:14;5.07;;;1.40;;
27863;SDS011;15980;51.092;13.916;2022-07-29T03:31:18;3.83;;;2.10;;
27863;SDS011;15980;51.092;13.916;2022-07-29T03:36:21;4.18;;;1.63;;
27863;SDS011;15980;51.092;13.916;2022-07-29T03:41:26;6.93;;;1.75;;
27863;SDS011;15980;51.092;13.916;2022-07-29T03:46:31;3.72;;;1.52;;
27863;SDS011;15980;51.092;13.916;2022-07-29T03:51:36;2.28;;;1.60;;
27863;SDS011;15980;51.092;13.916;2022-07-29T03:56:40;6.10;;;1.60;;
27863;SDS011;15980;51.092;13.916;2022-07-29T04:01:48;3.95;;;1.55;;
27863;SDS011;15980;51.092;13.916;2022-07-29T04:06:52;3.55;;;1.60;;
27863;SDS011;15980;51.092;13.916;2022-07-29T04:11:56;7.60;;;1.73;;
27863;SDS011;15980;51.092;13.916;2022-07-29T04:17:00;4.30;;;1.80;;
27863;SDS011;15980;51.092;13.916;2022-07-29T04:22:05;2.35;;;1.40;;
27863;SDS011;15980;51.092;13.916;2022-07-29T04:27:08;4.43;;;1.80;;
27863;SDS011;15980;51.092;13.916;2022-07-29T04:32:12;3.60;;;1.63;;
27863;SDS011;15980;51.092;13.916;2022-07-29T04:37:15;2.83;;;1.40;;
27863;SDS011;15980;51.092;13.916;2022-07-29T04:42:18;2.13;;;1.38;;
27863;SDS011;15980;51.092;13.916;2022-07-29T04:47:22;3.33;;;1.83;;
27863;SDS011;15980;51.092;13.916;2022-07-29T04:52:26;4.80;;;1.60;;
27863;SDS011;15980;51.092;13.916;2022-07-29T04:57:28;4.47;;;2.35;;
27863;SDS011;15980;51.092;13.916;2022-07-29T05:02:33;4.45;;;1.75;;
27863;SDS011;15980;51.092;13.916;2022-07-29T05:07:36;2.88;;;1.55;;
27863;SDS011;15980;51.092;13.916;2022-07-29T05:12:39;4.30;;;1.55;;
27863;SDS011;15980;51.092;13.916;2022-07-29T05:17:43;3.60;;;1.88;;
27863;SDS011;15980;51.092;13.916;2022-07-29T05:22:47;6.68;;;1.67;;
27863;SDS011;15980;51.092;13.916;2022-07-29T05:27:51;4.28;;;1.30;;
27863;SDS011;15980;51.092;13.916;2022-07-29T05:32:55;5.10;;;1.55;;
27863;SDS011;15980;51.092;13.916;2022-07-29T05:37:58;5.18;;;1.80;;
27863;SDS011;15980;51.092;13.916;2022-07-29T05:43:01;3.92;;;1.70;;
27863;SDS011;15980;51.092;13.916;2022-07-29T05:48:06;3.38;;;1.35;;
27863;SDS011;15980;51.092;13.916;2022-07-29T05:53:09;4.03;;;2.03;;
27863;SDS011;15980;51.092;13.916;2022-07-29T05:58:12;4.43;;;1.80;;
27863;SDS011;15980;51.092;13.916;2022-07-29T06:03:16;2.40;;;1.52;;
27863;SDS011;15980;51.092;13.916;2022-07-29T06:08:19;3.78;;;1.70;;
27863;SDS011;15980;51.092;13.916;2022-07-29T06:13:22;5.22;;;2.92;;
27863;SDS011;15980;51.092;13.916;2022-07-29T06:18:27;6.70;;;2.10;;
27863;SDS011;15980;51.092;13.916;2022-07-29T06:23:30;5.05;;;1.70;;
27863;SDS011;15980;51.092;13.916;2022-07-29T06:28:33;1.63;;;1.38;;
27863;SDS011;15980;51.092;13.916;2022-07-29T06:33:37;5.78;;;1.98;;
27863;SDS011;15980;51.092;13.916;2022-07-29T06:38:40;6.65;;;1.65;;
27863;SDS011;15980;51.092;13.916;2022-07-29T06:43:46;4.65;;;2.03;;
27863;SDS011;15980;51.092;13.916;2022-07-29T06:48:50;5.82;;;2.35;;
27863;SDS011;15980;51.092;13.916;2022-07-29T06:53:54;9.32;;;3.85;;
27863;SDS011;15980;51.092;13.916;2022-07-29T06:58:59;8.20;;;3.90;;
27863;SDS011;15980;51.092;13.916;2022-07-29T07:04:03;10.30;;;5.60;;
27863;SDS011;15980;51.092;13.916;2022-07-29T07:09:06;16.38;;;6.68;;
27863;SDS011;15980;51.092;13.916;2022-07-29T07:14:09;28.80;;;12.77;;
27863;SDS011;15980;51.092;13.916;2022-07-29T07:19:14;20.02;;;9.15;;
27863;SDS011;15980;51.092;13.916;2022-07-29T07:24:17;8.43;;;4.15;;
27863;SDS011;15980;51.092;13.916;2022-07-29T07:29:20;8.38;;;3.33;;
27863;SDS011;15980;51.092;13.916;2022-07-29T07:34:25;12.02;;;5.53;;
27863;SDS011;15980;51.092;13.916;2022-07-29T07:39:27;13.25;;;5.97;;
27863;SDS011;15980;51.092;13.916;2022-07-29T07:44:30;14.18;;;6.18;;
27863;SDS011;15980;51.092;13.916;2022-07-29T07:49:40;7.00;;;3.60;;
27863;SDS011;15980;51.092;13.916;2022-07-29T07:54:43;12.20;;;6.28;;
27863;SDS011;15980;51.092;13.916;2022-07-29T07:59:46;9.68;;;4.55;;
27863;SDS011;15980;51.092;13.916;2022-07-29T08:04:51;16.63;;;7.53;;
27863;SDS011;15980;51.092;13.916;2022-07-29T08:09:53;23.73;;;9.57;;
27863;SDS011;15980;51.092;13.916;2022-07-29T08:14:56;25.95;;;11.10;;
27863;SDS011;15980;51.092;13.916;2022-07-29T08:20:01;24.52;;;11.60;;
27863;SDS011;15980;51.092;13.916;2022-07-29T08:25:05;32.10;;;12.98;;
27863;SDS011;15980;51.092;13.916;2022-07-29T08:30:09;39.67;;;16.90;;
27863;SDS011;15980;51.092;13.916;2022-07-29T08:35:14;38.55;;;18.27;;
27863;SDS011;15980;51.092;13.916;2022-07-29T08:40:17;44.33;;;19.13;;
27863;SDS011;15980;51.092;13.916;2022-07-29T08:45:20;35.88;;;17.77;;
27863;SDS011;15980;51.092;13.916;2022-07-29T08:50:27;48.83;;;23.80;;
27863;SDS011;15980;51.092;13.916;2022-07-29T08:55:30;43.25;;;21.00;;
27863;SDS011;15980;51.092;13.916;2022-07-29T09:00:33;29.42;;;16.17;;
27863;SDS011;15980;51.092;13.916;2022-07-29T09:05:42;38.17;;;18.33;;
27863;SDS011;15980;51.092;13.916;2022-07-29T09:10:48;52.30;;;25.02;;
27863;SDS011;15980;51.092;13.916;2022-07-29T09:15:52;50.78;;;25.95;;
27863;SDS011;15980;51.092;13.916;2022-07-29T09:20:57;39.95;;;19.70;;
27863;SDS011;15980;51.092;13.916;2022-07-29T09:26:17;44.30;;;20.08;;
27863;SDS011;15980;51.092;13.916;2022-07-29T09:31:21;36.60;;;17.80;;
27863;SDS011;15980;51.092;13.916;2022-07-29T09:36:40;33.58;;;15.98;;
27863;SDS011;15980;51.092;13.916;2022-07-29T09:41:44;31.23;;;15.68;;
27863;SDS011;15980;51.092;13.916;2022-07-29T09:46:53;11.82;;;5.97;;
27863;SDS011;15980;51.092;13.916;2022-07-29T09:52:02;7.57;;;3.03;;
27863;SDS011;15980;51.092;13.916;2022-07-29T09:57:07;12.40;;;4.43;;
27863;SDS011;15980;51.092;13.916;2022-07-29T10:02:14;10.85;;;4.35;;
27863;SDS011;15980;51.092;13.916;2022-07-29T10:07:21;8.90;;;4.32;;
27863;SDS011;15980;51.092;13.916;2022-07-29T10:12:25;9.73;;;5.05;;
27863;SDS011;15980;51.092;13.916;2022-07-29T10:17:28;16.77;;;5.40;;
27863;SDS011;15980;51.092;13.916;2022-07-29T10:22:32;17.05;;;5.93;;
27863;SDS011;15980;51.092;13.916;2022-07-29T10:27:52;13.52;;;5.53;;
27863;SDS011;15980;51.092;13.916;2022-07-29T10:33:05;8.18;;;4.38;;
27863;SDS011;15980;51.092;13.916;2022-07-29T10:38:27;10.40;;;4.50;;
27863;SDS011;15980;51.092;13.916;2022-07-29T10:43:41;8.13;;;2.95;;
27863;SDS011;15980;51.092;13.916;2022-07-29T10:49:10;5.30;;;3.05;;
27863;SDS011;15980;51.092;13.916;2022-07-29T10:54:17;6.47;;;3.43;;
27863;SDS011;15980;51.092;13.916;2022-07-29T10:59:23;9.65;;;3.72;;
27863;SDS011;15980;51.092;13.916;2022-07-29T11:15:26;10.15;;;6.40;;
27863;SDS011;15980;51.092;13.916;2022-07-29T11:20:32;9.15;;;4.07;;
27863;SDS011;15980;51.092;13.916;2022-07-29T11:25:38;6.03;;;3.40;;
27863;SDS011;15980;51.092;13.916;2022-07-29T11:30:48;4.03;;;2.35;;
27863;SDS011;15980;51.092;13.916;2022-07-29T11:36:06;8.93;;;4.22;;
27863;SDS011;15980;51.092;13.916;2022-07-29T11:41:22;8.68;;;4.20;;
27863;SDS011;15980;51.092;13.916;2022-07-29T11:46:42;11.18;;;3.55;;
27863;SDS011;15980;51.092;13.916;2022-07-29T11:51:50;6.22;;;2.90;;
27863;SDS011;15980;51.092;13.916;2022-07-29T11:56:55;5.22;;;2.70;;
27863;SDS011;15980;51.092;13.916;2022-07-29T12:01:59;8.40;;;4.28;;
27863;SDS011;15980;51.092;13.916;2022-07-29T12:07:18;9.73;;;4.25;;
27863;SDS011;15980;51.092;13.916;2022-07-29T12:12:29;11.18;;;5.50;;
27863;SDS011;15980;51.092;13.916;2022-07-29T12:17:33;12.85;;;6.20;;
27863;SDS011;15980;51.092;13.916;2022-07-29T12:22:38;16.33;;;6.40;;
27863;SDS011;15980;51.092;13.916;2022-07-29T12:27:43;12.43;;;6.60;;
27863;SDS011;15980;51.092;13.916;2022-07-29T12:32:47;14.60;;;7.25;;
27863;SDS011;15980;51.092;13.916;2022-07-29T12:37:50;19.85;;;9.02;;
27863;SDS011;15980;51.092;13.916;2022-07-29T12:48:17;20.75;;;9.30;;
27863;SDS011;15980;51.092;13.916;2022-07-29T12:53:34;18.25;;;8.57;;
27863;SDS011;15980;51.092;13.916;2022-07-29T12:58:41;14.95;;;8.05;;
27863;SDS011;15980;51.092;13.916;2022-07-29T13:03:49;14.73;;;7.47;;
27863;SDS011;15980;51.092;13.916;2022-07-29T13:08:58;16.40;;;9.55;;
27863;SDS011;15980;51.092;13.916;2022-07-29T13:14:04;16.50;;;8.57;;
27863;SDS011;15980;51.092;13.916;2022-07-29T13:19:10;11.15;;;6.95;;
27863;SDS011;15980;51.092;13.916;2022-07-29T13:24:14;13.20;;;6.80;;
27863;SDS011;15980;51.092;13.916;2022-07-29T13:29:21;16.92;;;8.07;;
27863;SDS011;15980;51.092;13.916;2022-07-29T13:34:25;14.57;;;8.20;;
27863;SDS011;15980;51.092;13.916;2022-07-29T13:39:28;13.48;;;7.22;;
27863;SDS011;15980;51.092;13.916;2022-07-29T13:44:33;15.75;;;7.25;;
27863;SDS011;15980;51.092;13.916;2022-07-29T13:49:36;13.57;;;8.60;;
27863;SDS011;15980;51.092;13.916;2022-07-29T13:54:39;12.60;;;7.05;;
27863;SDS011;15980;51.092;13.916;2022-07-29T13:59:44;16.40;;;8.93;;
27863;SDS011;15980;51.092;13.916;2022-07-29T14:04:48;16.42;;;9.80;;
27863;SDS011;15980;51.092;13.916;2022-07-29T14:09:51;16.23;;;10.07;;
27863;SDS011;15980;51.092;13.916;2022-07-29T14:14:55;23.23;;;12.95;;
27863;SDS011;15980;51.092;13.916;2022-07-29T14:19:58;21.50;;;12.88;;
27863;SDS011;15980;51.092;13.916;2022-07-29T14:25:02;17.75;;;11.23;;
27863;SDS011;15980;51.092;13.916;2022-07-29T14:30:07;17.73;;;10.02;;
27863;SDS011;15980;51.092;13.916;2022-07-29T14:35:11;17.45;;;10.63;;
27863;SDS011;15980;51.092;13.916;2022-07-29T14:40:15;15.63;;;9.68;;
27863;SDS011;15980;51.092;13.916;2022-07-29T14:45:20;14.40;;;6.95;;
27863;SDS011;15980;51.092;13.916;2022-07-29T14:50:23;9.48;;;6.20;;
27863;SDS011;15980;51.092;13.916;2022-07-29T14:55:27;8.50;;;5.60;;
27863;SDS011;15980;51.092;13.916;2022-07-29T15:00:32;8.80;;;4.93;;
27863;SDS011;15980;51.092;13.916;2022-07-29T15:05:35;10.52;;;5.82;;
27863;SDS011;15980;51.092;13.916;2022-07-29T15:10:38;9.82;;;5.22;;
27863;SDS011;15980;51.092;13.916;2022-07-29T15:15:42;8.52;;;4.88;;
27863;SDS011;15980;51.092;13.916;2022-07-29T15:20:45;7.18;;;5.03;;
27863;SDS011;15980;51.092;13.916;2022-07-29T15:25:48;8.40;;;4.53;;
27863;SDS011;15980;51.092;13.916;2022-07-29T15:30:53;5.20;;;4.05;;
27863;SDS011;15980;51.092;13.916;2022-07-29T15:35:56;6.50;;;4.30;;
27863;SDS011;15980;51.092;13.916;2022-07-29T15:40:59;5.72;;;3.97;;
27863;SDS011;15980;51.092;13.916;2022-07-29T15:46:03;7.47;;;4.38;;
27863;SDS011;15980;51.092;13.916;2022-07-29T15:51:23;5.43;;;4.13;;
27863;SDS011;15980;51.092;13.916;2022-07-29T15:56:27;8.00;;;4.45;;
27863;SDS011;15980;51.092;13.916;2022-07-29T16:01:31;5.35;;;3.55;;
27863;SDS011;15980;51.092;13.916;2022-07-29T16:06:34;7.03;;;3.22;;
27863;SDS011;15980;51.092;13.916;2022-07-29T16:11:37;4.78;;;3.22;;
27863;SDS011;15980;51.092;13.916;2022-07-29T16:16:41;5.35;;;3.40;;
27863;SDS011;15980;51.092;13.916;2022-07-29T16:21:45;4.00;;;3.05;;
27863;SDS011;15980;51.092;13.916;2022-07-29T16:26:48;4.72;;;3.05;;
27863;SDS011;15980;51.092;13.916;2022-07-29T16:31:52;5.75;;;3.28;;
27863;SDS011;15980;51.092;13.916;2022-07-29T16:36:55;6.95;;;3.22;;
27863;SDS011;15980;51.092;13.916;2022-07-29T16:41:58;6.22;;;2.50;;
27863;SDS011;15980;51.092;13.916;2022-07-29T16:47:04;4.15;;;2.78;;
27863;SDS011;15980;51.092;13.916;2022-07-29T16:52:08;7.57;;;3.15;;
27863;SDS011;15980;51.092;13.916;2022-07-29T16:57:11;3.50;;;2.33;;
27863;SDS011;15980;51.092;13.916;2022-07-29T17:02:15;3.88;;;2.55;;
27863;SDS011;15980;51.092;13.916;2022-07-29T17:07:19;2.75;;;2.30;;
27863;SDS011;15980;51.092;13.916;2022-07-29T17:12:21;4.60;;;2.20;;
27863;SDS011;15980;51.092;13.916;2022-07-29T17:17:26;5.43;;;2.22;;
27863;SDS011;15980;51.092;13.916;2022-07-29T17:22:29;3.33;;;2.30;;
27863;SDS011;15980;51.092;13.916;2022-07-29T17:27:32;5.40;;;2.78;;
27863;SDS011;15980;51.092;13.916;2022-07-29T17:32:37;3.78;;;2.35;;
27863;SDS011;15980;51.092;13.916;2022-07-29T17:37:40;4.05;;;2.20;;
27863;SDS011;15980;51.092;13.916;2022-07-29T17:42:43;3.75;;;2.22;;
27863;SDS011;15980;51.092;13.916;2022-07-29T17:47:48;5.05;;;2.50;;
27863;SDS011;15980;51.092;13.916;2022-07-29T17:52:51;4.13;;;2.50;;
27863;SDS011;15980;51.092;13.916;2022-07-29T17:57:54;2.33;;;2.13;;
27863;SDS011;15980;51.092;13.916;2022-07-29T18:03:01;2.28;;;2.03;;
27863;SDS011;15980;51.092;13.916;2022-07-29T18:08:04;3.15;;;2.60;;
27863;SDS011;15980;51.092;13.916;2022-07-29T18:13:07;4.28;;;3.00;;
27863;SDS011;15980;51.092;13.916;2022-07-29T18:18:12;3.78;;;2.72;;
27863;SDS011;15980;51.092;13.916;2022-07-29T18:23:16;5.45;;;3.80;;
27863;SDS011;15980;51.092;13.916;2022-07-29T18:28:19;3.78;;;2.70;;
27863;SDS011;15980;51.092;13.916;2022-07-29T18:33:24;4.30;;;2.78;;
27863;SDS011;15980;51.092;13.916;2022-07-29T18:38:27;4.55;;;3.00;;
27863;SDS011;15980;51.092;13.916;2022-07-29T18:43:30;5.10;;;2.92;;
27863;SDS011;15980;51.092;13.916;2022-07-29T18:48:34;4.32;;;2.83;;
27863;SDS011;15980;51.092;13.916;2022-07-29T18:53:37;3.97;;;2.63;;
27863;SDS011;15980;51.092;13.916;2022-07-29T18:58:40;4.85;;;2.88;;
27863;SDS011;15980;51.092;13.916;2022-07-29T19:03:44;5.80;;;3.22;;
27863;SDS011;15980;51.092;13.916;2022-07-29T19:08:47;5.70;;;3.75;;
27863;SDS011;15980;51.092;13.916;2022-07-29T19:13:52;5.57;;;3.45;;
27863;SDS011;15980;51.092;13.916;2022-07-29T19:18:57;6.95;;;2.88;;
27863;SDS011;15980;51.092;13.916;2022-07-29T19:24:01;6.10;;;4.00;;
27863;SDS011;15980;51.092;13.916;2022-07-29T19:29:05;8.82;;;3.50;;
27863;SDS011;15980;51.092;13.916;2022-07-29T19:34:09;7.00;;;3.75;;
27863;SDS011;15980;51.092;13.916;2022-07-29T19:39:12;6.13;;;3.13;;
27863;SDS011;15980;51.092;13.916;2022-07-29T19:44:16;4.57;;;3.28;;
27863;SDS011;15980;51.092;13.916;2022-07-29T19:49:20;6.45;;;3.00;;
27863;SDS011;15980;51.092;13.916;2022-07-29T19:54:23;4.88;;;3.20;;
27863;SDS011;15980;51.092;13.916;2022-07-29T19:59:27;5.32;;;3.38;;
27863;SDS011;15980;51.092;13.916;2022-07-29T20:04:31;6.28;;;3.70;;
27863;SDS011;15980;51.092;13.916;2022-07-29T20:09:34;7.30;;;3.10;;
27863;SDS011;15980;51.092;13.916;2022-07-29T20:14:40;7.80;;;3.40;;
27863;SDS011;15980;51.092;13.916;2022-07-29T20:19:44;5.13;;;3.28;;
27863;SDS011;15980;51.092;13.916;2022-07-29T20:24:49;7.43;;;3.30;;
27863;SDS011;15980;51.092;13.916;2022-07-29T20:29:52;6.35;;;4.45;;
27863;SDS011;15980;51.092;13.916;2022-07-29T20:34:56;8.18;;;5.50;;
27863;SDS011;15980;51.092;13.916;2022-07-29T20:39:59;6.45;;;3.75;;
27863;SDS011;15980;51.092;13.916;2022-07-29T20:45:03;9.82;;;3.90;;
27863;SDS011;15980;51.092;13.916;2022-07-29T20:50:10;10.05;;;4.35;;
27863;SDS011;15980;51.092;13.916;2022-07-29T20:55:13;11.60;;;4.15;;
27863;SDS011;15980;51.092;13.916;2022-07-29T21:00:16;5.80;;;3.72;;
27863;SDS011;15980;51.092;13.916;2022-07-29T21:05:21;7.53;;;3.40;;
27863;SDS011;15980;51.092;13.916;2022-07-29T21:10:24;5.45;;;3.78;;
27863;SDS011;15980;51.092;13.916;2022-07-29T21:15:28;5.80;;;3.45;;
27863;SDS011;15980;51.092;13.916;2022-07-29T21:20:33;10.52;;;4.00;;
27863;SDS011;15980;51.092;13.916;2022-07-29T21:25:36;5.78;;;3.42;;
27863;SDS011;15980;51.092;13.916;2022-07-29T21:30:39;8.00;;;3.92;;
27863;SDS011;15980;51.092;13.916;2022-07-29T21:35:43;5.78;;;3.90;;
27863;SDS011;15980;51.092;13.916;2022-07-29T21:41:07;7.35;;;3.70;;
27863;SDS011;15980;51.092;13.916;2022-07-29T21:46:11;7.07;;;3.10;;
27863;SDS011;15980;51.092;13.916;2022-07-29T21:51:18;7.60;;;3.95;;
27863;SDS011;15980;51.092;13.916;2022-07-29T21:56:21;8.85;;;3.75;;
27863;SDS011;15980;51.092;13.916;2022-07-29T22:01:24;7.50;;;3.95;;
27863;SDS011;15980;51.092;13.916;2022-07-29T22:06:28;11.10;;;4.05;;
27863;SDS011;15980;51.092;13.916;2022-07-29T22:11:33;9.68;;;4.07;;
27863;SDS011;15980;51.092;13.916;2022-07-29T22:16:37;9.63;;;4.28;;
27863;SDS011;15980;51.092;13.916;2022-07-29T22:21:41;8.18;;;4.15;;
27863;SDS011;15980;51.092;13.916;2022-07-29T22:26:44;6.05;;;3.92;;
27863;SDS011;15980;51.092;13.916;2022-07-29T22:31:47;6.22;;;4.22;;
27863;SDS011;15980;51.092;13.916;2022-07-29T22:36:52;6.28;;;3.60;;
27863;SDS011;15980;51.092;13.916;2022-07-29T22:41:55;4.32;;;3.70;;
27863;SDS011;15980;51.092;13.916;2022-07-29T22:46:58;6.45;;;4.03;;
27863;SDS011;15980;51.092;13.916;2022-07-29T22:52:03;5.80;;;4.00;;
27863;SDS011;15980;51.092;13.916;2022-07-29T22:57:07;4.32;;;3.22;;
27863;SDS011;15980;51.092;13.916;2022-07-29T23:02:10;4.40;;;3.40;;
27863;SDS011;15980;51.092;13.916;2022-07-29T23:07:14;8.68;;;4.22;;
27863;SDS011;15980;51.092;13.916;2022-07-29T23:12:18;4.68;;;3.58;;
27863;SDS011;15980;51.092;13.916;2022-07-29T23:17:21;6.93;;;4.10;;
27863;SDS011;15980;51.092;13.916;2022-07-29T23:22:25;6.80;;;3.88;;
27863;SDS011;15980;51.092;13.916;2022-07-29T23:27:29;7.57;;;4.25;;
27863;SDS011;15980;51.092;13.916;2022-07-29T23:32:32;4.82;;;3.80;;
27863;SDS011;15980;51.092;13.916;2022-07-29T23:37:36;4.70;;;3.78;;
27863;SDS011;15980;51.092;13.916;2022-07-29T23:42:39;6.90;;;3.83;;
27863;SDS011;15980;51.092;13.916;2022-07-29T23:47:43;6.13;;;4.22;;
27863;SDS011;15980;51.092;13.916;2022-07-29T23:52:47;5.93;;;3.50;;
27863;SDS011;15980;51.092;13.916;2022-07-29T23:57:50;8.68;;;4.35;;
